sensor_id;sensor_type;location;lat;lon;timestamp;temperature;humidity
21759;DHT22;11041;50.854;20.580;2023-08-06T00:01:42;20.10;99.90
21759;DHT22;11041;50.854;20.580;2023-08-06T00:04:09;20.10;99.90
21759;DHT22;11041;50.854;20.580;2023-08-06T00:06:35;20.10;99.90
21759;DHT22;11041;50.854;20.580;2023-08-06T00:09:01;20.10;99.90
21759;DHT22;11041;50.854;20.580;2023-08-06T00:11:28;20.10;99.90
21759;DHT22;11041;50.854;20.580;2023-08-06T00:13:54;20.20;99.90
21759;DHT22;11041;50.854;20.580;2023-08-06T00:16:20;20.20;99.90
21759;DHT22;11041;50.854;20.580;2023-08-06T00:18:47;20.20;99.90
21759;DHT22;11041;50.854;20.580;2023-08-06T00:21:13;20.20;99.90
21759;DHT22;11041;50.854;20.580;2023-08-06T00:23:43;20.20;99.90
21759;DHT22;11041;50.854;20.580;2023-08-06T00:26:09;20.30;99.90
21759;DHT22;11041;50.854;20.580;2023-08-06T00:28:36;20.30;99.90
21759;DHT22;11041;50.854;20.580;2023-08-06T00:31:02;20.40;99.90
21759;DHT22;11041;50.854;20.580;2023-08-06T00:33:28;20.40;99.90
21759;DHT22;11041;50.854;20.580;2023-08-06T00:35:54;20.30;99.90
21759;DHT22;11041;50.854;20.580;2023-08-06T00:38:20;20.30;99.90
21759;DHT22;11041;50.854;20.580;2023-08-06T00:40:46;20.30;99.90
21759;DHT22;11041;50.854;20.580;2023-08-06T00:43:13;20.20;99.90
21759;DHT22;11041;50.854;20.580;2023-08-06T00:45:39;20.30;99.90
21759;DHT22;11041;50.854;20.580;2023-08-06T00:48:06;20.30;99.90
21759;DHT22;11041;50.854;20.580;2023-08-06T00:50:33;20.30;99.90
21759;DHT22;11041;50.854;20.580;2023-08-06T00:53:00;20.30;99.90
21759;DHT22;11041;50.854;20.580;2023-08-06T00:55:28;20.30;99.90
21759;DHT22;11041;50.854;20.580;2023-08-06T00:57:55;20.00;99.90
21759;DHT22;11041;50.854;20.580;2023-08-06T01:00:22;19.70;99.90
21759;DHT22;11041;50.854;20.580;2023-08-06T01:02:50;19.70;99.90
21759;DHT22;11041;50.854;20.580;2023-08-06T01:05:17;19.60;99.90
21759;DHT22;11041;50.854;20.580;2023-08-06T01:14:18;19.50;99.90
21759;DHT22;11041;50.854;20.580;2023-08-06T01:16:53;19.50;99.90
21759;DHT22;11041;50.854;20.580;2023-08-06T01:19:21;19.60;99.90
21759;DHT22;11041;50.854;20.580;2023-08-06T01:21:47;19.60;99.90
21759;DHT22;11041;50.854;20.580;2023-08-06T01:24:14;19.60;99.90
21759;DHT22;11041;50.854;20.580;2023-08-06T01:26:47;19.70;99.90
21759;DHT22;11041;50.854;20.580;2023-08-06T01:29:43;19.60;99.90
21759;DHT22;11041;50.854;20.580;2023-08-06T01:32:14;19.60;99.90
21759;DHT22;11041;50.854;20.580;2023-08-06T01:34:43;19.60;99.90
21759;DHT22;11041;50.854;20.580;2023-08-06T01:37:12;19.60;99.90
21759;DHT22;11041;50.854;20.580;2023-08-06T01:39:43;19.60;99.90
21759;DHT22;11041;50.854;20.580;2023-08-06T01:42:09;19.50;99.90
21759;DHT22;11041;50.854;20.580;2023-08-06T01:44:36;19.60;99.90
21759;DHT22;11041;50.854;20.580;2023-08-06T01:47:02;19.50;99.90
21759;DHT22;11041;50.854;20.580;2023-08-06T01:49:29;19.40;99.90
21759;DHT22;11041;50.854;20.580;2023-08-06T01:51:55;19.40;99.90
21759;DHT22;11041;50.854;20.580;2023-08-06T01:54:21;19.40;99.90
21759;DHT22;11041;50.854;20.580;2023-08-06T01:56:48;19.30;99.90
21759;DHT22;11041;50.854;20.580;2023-08-06T01:59:15;19.30;99.90
21759;DHT22;11041;50.854;20.580;2023-08-06T02:01:41;19.30;99.90
21759;DHT22;11041;50.854;20.580;2023-08-06T02:04:07;19.30;99.90
21759;DHT22;11041;50.854;20.580;2023-08-06T02:06:34;19.30;99.90
21759;DHT22;11041;50.854;20.580;2023-08-06T02:09:00;19.30;99.90
21759;DHT22;11041;50.854;20.580;2023-08-06T02:11:26;19.30;99.90
21759;DHT22;11041;50.854;20.580;2023-08-06T02:13:53;19.30;99.90
21759;DHT22;11041;50.854;20.580;2023-08-06T02:16:19;19.30;99.90
21759;DHT22;11041;50.854;20.580;2023-08-06T02:18:45;19.30;99.90
21759;DHT22;11041;50.854;20.580;2023-08-06T02:21:11;19.30;99.90
21759;DHT22;11041;50.854;20.580;2023-08-06T02:23:38;19.30;99.90
21759;DHT22;11041;50.854;20.580;2023-08-06T02:26:04;19.30;99.90
21759;DHT22;11041;50.854;20.580;2023-08-06T02:28:31;19.30;99.90
21759;DHT22;11041;50.854;20.580;2023-08-06T02:30:58;19.30;99.90
21759;DHT22;11041;50.854;20.580;2023-08-06T02:33:24;19.30;99.90
21759;DHT22;11041;50.854;20.580;2023-08-06T02:35:51;19.20;99.90
21759;DHT22;11041;50.854;20.580;2023-08-06T02:38:17;19.20;99.90
21759;DHT22;11041;50.854;20.580;2023-08-06T02:40:46;19.20;99.90
21759;DHT22;11041;50.854;20.580;2023-08-06T02:43:13;19.20;99.90
21759;DHT22;11041;50.854;20.580;2023-08-06T02:45:40;19.20;99.90
21759;DHT22;11041;50.854;20.580;2023-08-06T02:48:06;19.20;99.90
21759;DHT22;11041;50.854;20.580;2023-08-06T02:50:39;19.20;99.90
21759;DHT22;11041;50.854;20.580;2023-08-06T02:53:07;19.20;99.90
21759;DHT22;11041;50.854;20.580;2023-08-06T02:55:34;19.20;99.90
21759;DHT22;11041;50.854;20.580;2023-08-06T02:58:02;19.20;99.90
21759;DHT22;11041;50.854;20.580;2023-08-06T03:00:28;19.20;99.90
21759;DHT22;11041;50.854;20.580;2023-08-06T03:02:55;19.20;99.90
21759;DHT22;11041;50.854;20.580;2023-08-06T03:05:21;19.10;99.90
21759;DHT22;11041;50.854;20.580;2023-08-06T03:07:48;19.10;99.90
21759;DHT22;11041;50.854;20.580;2023-08-06T03:10:14;19.10;99.90
21759;DHT22;11041;50.854;20.580;2023-08-06T03:12:41;19.10;99.90
21759;DHT22;11041;50.854;20.580;2023-08-06T03:15:07;19.10;99.90
21759;DHT22;11041;50.854;20.580;2023-08-06T03:17:34;19.00;99.90
21759;DHT22;11041;50.854;20.580;2023-08-06T03:20:01;19.10;99.90
21759;DHT22;11041;50.854;20.580;2023-08-06T03:22:27;19.00;99.90
21759;DHT22;11041;50.854;20.580;2023-08-06T03:24:53;19.00;99.90
21759;DHT22;11041;50.854;20.580;2023-08-06T03:27:20;19.00;99.90
21759;DHT22;11041;50.854;20.580;2023-08-06T03:29:51;19.00;99.90
21759;DHT22;11041;50.854;20.580;2023-08-06T03:32:18;19.00;99.90
21759;DHT22;11041;50.854;20.580;2023-08-06T03:34:44;19.10;99.90
21759;DHT22;11041;50.854;20.580;2023-08-06T03:37:11;19.10;99.90
21759;DHT22;11041;50.854;20.580;2023-08-06T03:39:37;19.10;99.90
21759;DHT22;11041;50.854;20.580;2023-08-06T03:42:04;19.10;99.90
21759;DHT22;11041;50.854;20.580;2023-08-06T03:44:31;19.00;99.90
21759;DHT22;11041;50.854;20.580;2023-08-06T03:46:57;19.10;99.90
21759;DHT22;11041;50.854;20.580;2023-08-06T03:49:23;19.10;99.90
21759;DHT22;11041;50.854;20.580;2023-08-06T03:51:50;19.10;99.90
21759;DHT22;11041;50.854;20.580;2023-08-06T03:54:16;19.10;99.90
21759;DHT22;11041;50.854;20.580;2023-08-06T03:56:42;19.10;99.90
21759;DHT22;11041;50.854;20.580;2023-08-06T03:59:08;19.20;99.90
21759;DHT22;11041;50.854;20.580;2023-08-06T04:01:35;19.20;99.90
21759;DHT22;11041;50.854;20.580;2023-08-06T04:04:01;19.20;99.90
21759;DHT22;11041;50.854;20.580;2023-08-06T04:06:28;19.20;99.90
21759;DHT22;11041;50.854;20.580;2023-08-06T04:08:54;19.30;99.90
21759;DHT22;11041;50.854;20.580;2023-08-06T04:11:20;19.30;99.90
21759;DHT22;11041;50.854;20.580;2023-08-06T04:13:47;19.30;99.90
21759;DHT22;11041;50.854;20.580;2023-08-06T04:16:13;19.30;99.90
21759;DHT22;11041;50.854;20.580;2023-08-06T04:18:41;19.30;99.90
21759;DHT22;11041;50.854;20.580;2023-08-06T04:21:07;19.30;99.90
21759;DHT22;11041;50.854;20.580;2023-08-06T04:23:34;19.40;99.90
21759;DHT22;11041;50.854;20.580;2023-08-06T04:26:00;19.40;99.90
21759;DHT22;11041;50.854;20.580;2023-08-06T04:28:26;19.40;99.90
21759;DHT22;11041;50.854;20.580;2023-08-06T04:30:53;19.40;99.90
21759;DHT22;11041;50.854;20.580;2023-08-06T04:33:20;19.40;99.90
21759;DHT22;11041;50.854;20.580;2023-08-06T04:35:47;19.40;99.90
21759;DHT22;11041;50.854;20.580;2023-08-06T04:38:13;19.50;99.90
21759;DHT22;11041;50.854;20.580;2023-08-06T04:40:39;19.50;99.90
21759;DHT22;11041;50.854;20.580;2023-08-06T04:43:07;19.60;99.90
21759;DHT22;11041;50.854;20.580;2023-08-06T04:45:34;19.60;99.90
21759;DHT22;11041;50.854;20.580;2023-08-06T04:48:00;19.60;99.90
21759;DHT22;11041;50.854;20.580;2023-08-06T04:50:26;19.70;99.90
21759;DHT22;11041;50.854;20.580;2023-08-06T04:52:53;19.70;99.90
21759;DHT22;11041;50.854;20.580;2023-08-06T04:55:19;19.80;99.90
21759;DHT22;11041;50.854;20.580;2023-08-06T04:57:45;19.80;99.90
21759;DHT22;11041;50.854;20.580;2023-08-06T05:00:12;19.90;99.90
21759;DHT22;11041;50.854;20.580;2023-08-06T05:02:38;19.80;99.90
21759;DHT22;11041;50.854;20.580;2023-08-06T05:05:05;19.80;99.90
21759;DHT22;11041;50.854;20.580;2023-08-06T05:07:31;19.90;99.90
21759;DHT22;11041;50.854;20.580;2023-08-06T05:09:58;19.90;99.90
21759;DHT22;11041;50.854;20.580;2023-08-06T05:12:24;20.00;99.90
21759;DHT22;11041;50.854;20.580;2023-08-06T05:14:50;20.00;99.90
21759;DHT22;11041;50.854;20.580;2023-08-06T05:17:16;20.10;99.90
21759;DHT22;11041;50.854;20.580;2023-08-06T05:19:43;20.10;99.90
21759;DHT22;11041;50.854;20.580;2023-08-06T05:22:09;20.20;99.90
21759;DHT22;11041;50.854;20.580;2023-08-06T05:24:36;20.20;99.90
21759;DHT22;11041;50.854;20.580;2023-08-06T05:27:02;20.20;99.90
21759;DHT22;11041;50.854;20.580;2023-08-06T05:29:29;20.20;99.90
21759;DHT22;11041;50.854;20.580;2023-08-06T05:31:55;20.20;99.90
21759;DHT22;11041;50.854;20.580;2023-08-06T05:34:21;20.20;99.90
21759;DHT22;11041;50.854;20.580;2023-08-06T05:36:47;20.20;99.90
21759;DHT22;11041;50.854;20.580;2023-08-06T05:39:14;20.20;99.90
21759;DHT22;11041;50.854;20.580;2023-08-06T05:41:40;20.20;99.90
21759;DHT22;11041;50.854;20.580;2023-08-06T05:44:06;20.30;99.90
21759;DHT22;11041;50.854;20.580;2023-08-06T05:46:33;20.20;99.90
21759;DHT22;11041;50.854;20.580;2023-08-06T05:48:59;20.30;99.90
21759;DHT22;11041;50.854;20.580;2023-08-06T05:51:26;20.30;99.90
21759;DHT22;11041;50.854;20.580;2023-08-06T05:53:53;20.30;99.90
21759;DHT22;11041;50.854;20.580;2023-08-06T05:56:22;20.30;99.90
21759;DHT22;11041;50.854;20.580;2023-08-06T05:58:49;20.30;99.90
21759;DHT22;11041;50.854;20.580;2023-08-06T06:01:17;20.40;99.90
21759;DHT22;11041;50.854;20.580;2023-08-06T06:03:43;20.40;99.90
21759;DHT22;11041;50.854;20.580;2023-08-06T06:06:09;20.50;99.90
21759;DHT22;11041;50.854;20.580;2023-08-06T06:08:42;20.50;99.90
21759;DHT22;11041;50.854;20.580;2023-08-06T06:11:08;20.50;99.90
21759;DHT22;11041;50.854;20.580;2023-08-06T06:13:40;20.50;99.90
21759;DHT22;11041;50.854;20.580;2023-08-06T06:16:08;20.50;99.90
21759;DHT22;11041;50.854;20.580;2023-08-06T06:18:35;20.50;99.90
21759;DHT22;11041;50.854;20.580;2023-08-06T06:21:01;20.50;99.90
21759;DHT22;11041;50.854;20.580;2023-08-06T06:23:27;20.50;99.90
21759;DHT22;11041;50.854;20.580;2023-08-06T06:25:53;20.40;99.90
21759;DHT22;11041;50.854;20.580;2023-08-06T06:28:20;20.50;99.90
21759;DHT22;11041;50.854;20.580;2023-08-06T06:30:47;20.50;99.90
21759;DHT22;11041;50.854;20.580;2023-08-06T06:33:14;20.60;99.90
21759;DHT22;11041;50.854;20.580;2023-08-06T06:35:40;20.60;99.90
21759;DHT22;11041;50.854;20.580;2023-08-06T06:38:06;20.60;99.90
21759;DHT22;11041;50.854;20.580;2023-08-06T06:40:32;20.70;99.90
21759;DHT22;11041;50.854;20.580;2023-08-06T06:42:59;20.70;99.90
21759;DHT22;11041;50.854;20.580;2023-08-06T06:45:25;20.80;99.90
21759;DHT22;11041;50.854;20.580;2023-08-06T06:47:52;20.80;99.90
21759;DHT22;11041;50.854;20.580;2023-08-06T06:50:18;20.80;99.90
21759;DHT22;11041;50.854;20.580;2023-08-06T06:52:44;20.90;99.90
21759;DHT22;11041;50.854;20.580;2023-08-06T06:55:10;21.00;99.90
21759;DHT22;11041;50.854;20.580;2023-08-06T06:57:36;21.00;99.90
21759;DHT22;11041;50.854;20.580;2023-08-06T07:00:03;21.00;99.90
21759;DHT22;11041;50.854;20.580;2023-08-06T07:02:30;21.00;99.90
21759;DHT22;11041;50.854;20.580;2023-08-06T07:04:58;21.00;99.90
21759;DHT22;11041;50.854;20.580;2023-08-06T07:07:25;21.00;99.90
21759;DHT22;11041;50.854;20.580;2023-08-06T07:09:51;20.90;99.90
21759;DHT22;11041;50.854;20.580;2023-08-06T07:12:17;20.90;99.90
21759;DHT22;11041;50.854;20.580;2023-08-06T07:14:43;20.90;99.90
21759;DHT22;11041;50.854;20.580;2023-08-06T07:17:10;20.90;99.90
21759;DHT22;11041;50.854;20.580;2023-08-06T07:19:36;20.90;99.90
21759;DHT22;11041;50.854;20.580;2023-08-06T07:22:03;20.80;99.90
21759;DHT22;11041;50.854;20.580;2023-08-06T07:24:29;20.90;99.90
21759;DHT22;11041;50.854;20.580;2023-08-06T07:26:56;20.80;99.90
21759;DHT22;11041;50.854;20.580;2023-08-06T07:29:22;20.80;99.90
21759;DHT22;11041;50.854;20.580;2023-08-06T07:31:49;20.80;99.90
21759;DHT22;11041;50.854;20.580;2023-08-06T07:34:16;20.90;99.90
21759;DHT22;11041;50.854;20.580;2023-08-06T07:36:46;20.90;99.90
21759;DHT22;11041;50.854;20.580;2023-08-06T07:39:12;21.00;99.90
21759;DHT22;11041;50.854;20.580;2023-08-06T07:41:39;21.00;99.90
21759;DHT22;11041;50.854;20.580;2023-08-06T07:44:07;21.00;99.90
21759;DHT22;11041;50.854;20.580;2023-08-06T07:46:33;21.20;99.90
21759;DHT22;11041;50.854;20.580;2023-08-06T07:48:59;21.30;99.90
21759;DHT22;11041;50.854;20.580;2023-08-06T07:51:26;21.30;99.90
21759;DHT22;11041;50.854;20.580;2023-08-06T07:53:52;21.40;99.90
21759;DHT22;11041;50.854;20.580;2023-08-06T07:56:18;21.40;99.90
21759;DHT22;11041;50.854;20.580;2023-08-06T07:58:45;21.40;99.90
21759;DHT22;11041;50.854;20.580;2023-08-06T08:01:12;21.40;99.90
21759;DHT22;11041;50.854;20.580;2023-08-06T08:03:38;21.50;99.90
21759;DHT22;11041;50.854;20.580;2023-08-06T08:06:04;21.60;99.90
21759;DHT22;11041;50.854;20.580;2023-08-06T08:08:31;21.70;99.90
21759;DHT22;11041;50.854;20.580;2023-08-06T08:10:57;21.90;99.90
21759;DHT22;11041;50.854;20.580;2023-08-06T08:13:26;22.10;99.90
21759;DHT22;11041;50.854;20.580;2023-08-06T08:15:57;22.30;99.90
21759;DHT22;11041;50.854;20.580;2023-08-06T08:18:25;22.50;99.90
21759;DHT22;11041;50.854;20.580;2023-08-06T08:20:52;22.70;99.90
21759;DHT22;11041;50.854;20.580;2023-08-06T08:23:18;22.90;99.90
21759;DHT22;11041;50.854;20.580;2023-08-06T08:25:45;23.00;99.90
21759;DHT22;11041;50.854;20.580;2023-08-06T08:28:11;23.00;99.90
21759;DHT22;11041;50.854;20.580;2023-08-06T08:34:05;23.30;99.90
21759;DHT22;11041;50.854;20.580;2023-08-06T08:36:35;23.30;99.90
21759;DHT22;11041;50.854;20.580;2023-08-06T08:39:01;23.90;99.90
21759;DHT22;11041;50.854;20.580;2023-08-06T08:41:36;23.40;99.90
21759;DHT22;11041;50.854;20.580;2023-08-06T08:44:03;23.40;99.90
21759;DHT22;11041;50.854;20.580;2023-08-06T08:46:40;23.50;99.90
21759;DHT22;11041;50.854;20.580;2023-08-06T08:49:11;23.70;99.90
21759;DHT22;11041;50.854;20.580;2023-08-06T08:51:39;23.80;99.90
21759;DHT22;11041;50.854;20.580;2023-08-06T08:54:07;23.90;99.90
21759;DHT22;11041;50.854;20.580;2023-08-06T08:56:35;23.90;99.90
21759;DHT22;11041;50.854;20.580;2023-08-06T08:59:04;23.90;99.90
21759;DHT22;11041;50.854;20.580;2023-08-06T09:01:31;24.00;99.90
21759;DHT22;11041;50.854;20.580;2023-08-06T09:03:59;24.10;99.90
21759;DHT22;11041;50.854;20.580;2023-08-06T09:06:28;24.20;99.90
21759;DHT22;11041;50.854;20.580;2023-08-06T09:09:08;24.20;99.90
21759;DHT22;11041;50.854;20.580;2023-08-06T09:11:43;24.10;99.90
21759;DHT22;11041;50.854;20.580;2023-08-06T09:14:11;24.10;99.90
21759;DHT22;11041;50.854;20.580;2023-08-06T09:16:38;24.10;99.90
21759;DHT22;11041;50.854;20.580;2023-08-06T09:19:12;24.10;99.90
21759;DHT22;11041;50.854;20.580;2023-08-06T09:21:40;24.10;99.90
21759;DHT22;11041;50.854;20.580;2023-08-06T09:24:15;24.10;99.90
21759;DHT22;11041;50.854;20.580;2023-08-06T09:26:44;24.30;99.90
21759;DHT22;11041;50.854;20.580;2023-08-06T09:29:16;24.40;99.90
21759;DHT22;11041;50.854;20.580;2023-08-06T09:31:47;24.60;99.90
21759;DHT22;11041;50.854;20.580;2023-08-06T09:34:21;24.70;99.90
21759;DHT22;11041;50.854;20.580;2023-08-06T09:36:50;24.90;99.90
21759;DHT22;11041;50.854;20.580;2023-08-06T09:39:26;24.90;99.90
21759;DHT22;11041;50.854;20.580;2023-08-06T09:42:00;24.90;99.90
21759;DHT22;11041;50.854;20.580;2023-08-06T09:44:32;24.90;99.90
21759;DHT22;11041;50.854;20.580;2023-08-06T09:47:03;25.00;99.90
21759;DHT22;11041;50.854;20.580;2023-08-06T09:51:59;25.20;99.90
21759;DHT22;11041;50.854;20.580;2023-08-06T09:54:27;25.10;99.90
21759;DHT22;11041;50.854;20.580;2023-08-06T09:56:56;25.20;99.90
21759;DHT22;11041;50.854;20.580;2023-08-06T09:59:26;25.20;99.90
21759;DHT22;11041;50.854;20.580;2023-08-06T10:01:54;25.20;99.90
21759;DHT22;11041;50.854;20.580;2023-08-06T10:04:22;25.10;99.90
21759;DHT22;11041;50.854;20.580;2023-08-06T10:06:49;25.00;99.90
21759;DHT22;11041;50.854;20.580;2023-08-06T10:09:16;24.90;99.90
21759;DHT22;11041;50.854;20.580;2023-08-06T10:11:49;24.90;99.90
21759;DHT22;11041;50.854;20.580;2023-08-06T10:14:21;25.10;99.90
21759;DHT22;11041;50.854;20.580;2023-08-06T10:16:53;25.20;99.90
21759;DHT22;11041;50.854;20.580;2023-08-06T10:19:22;25.40;99.90
21759;DHT22;11041;50.854;20.580;2023-08-06T10:27:34;25.50;99.90
21759;DHT22;11041;50.854;20.580;2023-08-06T10:31:02;25.60;99.90
21759;DHT22;11041;50.854;20.580;2023-08-06T10:33:14;25.60;99.90
21759;DHT22;11041;50.854;20.580;2023-08-06T10:35:46;25.50;99.90
21759;DHT22;11041;50.854;20.580;2023-08-06T10:38:21;25.50;99.90
21759;DHT22;11041;50.854;20.580;2023-08-06T10:43:34;25.50;99.90
21759;DHT22;11041;50.854;20.580;2023-08-06T10:46:05;25.40;99.90
21759;DHT22;11041;50.854;20.580;2023-08-06T10:48:41;25.40;99.90
21759;DHT22;11041;50.854;20.580;2023-08-06T10:51:13;25.50;99.90
21759;DHT22;11041;50.854;20.580;2023-08-06T10:53:45;25.60;99.90
21759;DHT22;11041;50.854;20.580;2023-08-06T10:56:14;25.80;99.90
21759;DHT22;11041;50.854;20.580;2023-08-06T10:58:45;25.80;99.90
21759;DHT22;11041;50.854;20.580;2023-08-06T11:01:15;25.50;99.90
21759;DHT22;11041;50.854;20.580;2023-08-06T11:03:46;25.20;99.90
21759;DHT22;11041;50.854;20.580;2023-08-06T11:06:22;25.00;99.90
21759;DHT22;11041;50.854;20.580;2023-08-06T11:08:56;24.70;99.90
21759;DHT22;11041;50.854;20.580;2023-08-06T11:11:26;24.60;99.90
21759;DHT22;11041;50.854;20.580;2023-08-06T11:13:52;24.50;99.90
21759;DHT22;11041;50.854;20.580;2023-08-06T11:16:20;24.50;99.90
21759;DHT22;11041;50.854;20.580;2023-08-06T11:18:51;24.60;99.90
21759;DHT22;11041;50.854;20.580;2023-08-06T11:21:25;24.80;99.90
21759;DHT22;11041;50.854;20.580;2023-08-06T11:23:59;25.00;99.90
21759;DHT22;11041;50.854;20.580;2023-08-06T11:26:32;24.90;99.90
21759;DHT22;11041;50.854;20.580;2023-08-06T11:28:59;24.70;99.90
21759;DHT22;11041;50.854;20.580;2023-08-06T11:31:25;24.70;99.90
21759;DHT22;11041;50.854;20.580;2023-08-06T11:33:54;24.60;99.90
21759;DHT22;11041;50.854;20.580;2023-08-06T11:36:34;24.30;99.90
21759;DHT22;11041;50.854;20.580;2023-08-06T11:39:03;24.10;99.90
21759;DHT22;11041;50.854;20.580;2023-08-06T11:41:32;24.00;99.90
21759;DHT22;11041;50.854;20.580;2023-08-06T11:43:59;23.80;99.90
21759;DHT22;11041;50.854;20.580;2023-08-06T11:46:26;23.80;99.90
21759;DHT22;11041;50.854;20.580;2023-08-06T11:48:58;23.80;99.90
21759;DHT22;11041;50.854;20.580;2023-08-06T11:51:27;24.00;99.90
21759;DHT22;11041;50.854;20.580;2023-08-06T11:54:13;23.90;99.90
21759;DHT22;11041;50.854;20.580;2023-08-06T11:56:39;23.80;99.90
21759;DHT22;11041;50.854;20.580;2023-08-06T11:59:06;23.70;99.90
21759;DHT22;11041;50.854;20.580;2023-08-06T12:01:34;23.70;99.90
21759;DHT22;11041;50.854;20.580;2023-08-06T12:04:01;23.60;99.90
21759;DHT22;11041;50.854;20.580;2023-08-06T12:06:30;23.70;99.90
21759;DHT22;11041;50.854;20.580;2023-08-06T12:08:56;23.70;99.90
21759;DHT22;11041;50.854;20.580;2023-08-06T12:11:23;23.70;99.90
21759;DHT22;11041;50.854;20.580;2023-08-06T12:13:54;23.80;99.90
21759;DHT22;11041;50.854;20.580;2023-08-06T12:16:22;24.00;99.90
21759;DHT22;11041;50.854;20.580;2023-08-06T12:18:50;24.20;99.90
21759;DHT22;11041;50.854;20.580;2023-08-06T12:21:16;24.00;99.90
21759;DHT22;11041;50.854;20.580;2023-08-06T12:23:42;23.90;99.90
21759;DHT22;11041;50.854;20.580;2023-08-06T12:26:08;24.10;99.90
21759;DHT22;11041;50.854;20.580;2023-08-06T12:28:34;24.20;99.90
21759;DHT22;11041;50.854;20.580;2023-08-06T12:31:01;24.30;99.90
21759;DHT22;11041;50.854;20.580;2023-08-06T12:33:27;24.30;99.90
21759;DHT22;11041;50.854;20.580;2023-08-06T12:35:54;24.20;99.90
21759;DHT22;11041;50.854;20.580;2023-08-06T12:38:21;24.20;99.90
21759;DHT22;11041;50.854;20.580;2023-08-06T12:40:48;24.20;99.90
21759;DHT22;11041;50.854;20.580;2023-08-06T12:43:14;24.30;99.90
21759;DHT22;11041;50.854;20.580;2023-08-06T12:45:41;24.30;99.90
21759;DHT22;11041;50.854;20.580;2023-08-06T12:48:07;24.30;99.90
21759;DHT22;11041;50.854;20.580;2023-08-06T12:50:33;24.30;99.90
21759;DHT22;11041;50.854;20.580;2023-08-06T12:53:00;24.20;99.90
21759;DHT22;11041;50.854;20.580;2023-08-06T12:55:27;24.20;99.90
21759;DHT22;11041;50.854;20.580;2023-08-06T12:57:53;24.20;99.90
21759;DHT22;11041;50.854;20.580;2023-08-06T13:00:19;24.10;99.90
21759;DHT22;11041;50.854;20.580;2023-08-06T13:02:46;24.20;99.90
21759;DHT22;11041;50.854;20.580;2023-08-06T13:05:12;24.20;99.90
21759;DHT22;11041;50.854;20.580;2023-08-06T13:07:38;24.20;99.90
21759;DHT22;11041;50.854;20.580;2023-08-06T13:10:05;24.10;99.90
21759;DHT22;11041;50.854;20.580;2023-08-06T13:12:32;24.10;99.90
21759;DHT22;11041;50.854;20.580;2023-08-06T13:14:58;24.10;99.90
21759;DHT22;11041;50.854;20.580;2023-08-06T13:17:25;24.00;99.90
21759;DHT22;11041;50.854;20.580;2023-08-06T13:19:52;23.90;99.90
21759;DHT22;11041;50.854;20.580;2023-08-06T13:22:19;23.90;99.90
21759;DHT22;11041;50.854;20.580;2023-08-06T13:24:45;24.50;99.90
21759;DHT22;11041;50.854;20.580;2023-08-06T13:27:12;24.60;99.90
21759;DHT22;11041;50.854;20.580;2023-08-06T13:29:38;25.10;99.90
21759;DHT22;11041;50.854;20.580;2023-08-06T13:32:05;25.80;99.90
21759;DHT22;11041;50.854;20.580;2023-08-06T13:34:31;26.40;99.90
21759;DHT22;11041;50.854;20.580;2023-08-06T13:36:57;26.20;99.90
21759;DHT22;11041;50.854;20.580;2023-08-06T13:39:24;26.20;99.90
21759;DHT22;11041;50.854;20.580;2023-08-06T13:41:50;25.70;99.90
21759;DHT22;11041;50.854;20.580;2023-08-06T13:44:16;25.50;99.90
21759;DHT22;11041;50.854;20.580;2023-08-06T13:46:43;25.50;99.90
21759;DHT22;11041;50.854;20.580;2023-08-06T13:49:09;25.40;99.90
21759;DHT22;11041;50.854;20.580;2023-08-06T13:51:36;25.20;99.90
21759;DHT22;11041;50.854;20.580;2023-08-06T13:54:02;25.10;99.90
21759;DHT22;11041;50.854;20.580;2023-08-06T13:56:29;24.80;99.90
21759;DHT22;11041;50.854;20.580;2023-08-06T13:58:55;24.70;99.90
21759;DHT22;11041;50.854;20.580;2023-08-06T14:01:22;24.40;99.90
21759;DHT22;11041;50.854;20.580;2023-08-06T14:03:48;24.20;99.90
21759;DHT22;11041;50.854;20.580;2023-08-06T14:06:15;24.00;99.90
21759;DHT22;11041;50.854;20.580;2023-08-06T14:08:41;23.80;99.90
21759;DHT22;11041;50.854;20.580;2023-08-06T14:11:08;23.50;99.90
21759;DHT22;11041;50.854;20.580;2023-08-06T14:13:36;23.40;99.90
21759;DHT22;11041;50.854;20.580;2023-08-06T14:16:03;22.80;99.90
21759;DHT22;11041;50.854;20.580;2023-08-06T14:18:29;22.00;99.90
21759;DHT22;11041;50.854;20.580;2023-08-06T14:20:55;20.90;99.90
21759;DHT22;11041;50.854;20.580;2023-08-06T14:23:21;20.10;99.90
21759;DHT22;11041;50.854;20.580;2023-08-06T14:25:48;19.80;99.90
21759;DHT22;11041;50.854;20.580;2023-08-06T14:28:14;19.60;99.90
21759;DHT22;11041;50.854;20.580;2023-08-06T14:30:40;19.70;99.90
21759;DHT22;11041;50.854;20.580;2023-08-06T14:33:07;19.80;99.90
21759;DHT22;11041;50.854;20.580;2023-08-06T14:35:33;19.80;99.90
21759;DHT22;11041;50.854;20.580;2023-08-06T14:37:59;19.60;99.90
21759;DHT22;11041;50.854;20.580;2023-08-06T14:40:26;19.50;99.90
21759;DHT22;11041;50.854;20.580;2023-08-06T14:42:54;19.20;99.90
21759;DHT22;11041;50.854;20.580;2023-08-06T14:45:20;19.10;99.90
21759;DHT22;11041;50.854;20.580;2023-08-06T14:47:46;19.00;99.90
21759;DHT22;11041;50.854;20.580;2023-08-06T14:50:13;18.70;99.90
21759;DHT22;11041;50.854;20.580;2023-08-06T14:52:39;18.30;99.90
21759;DHT22;11041;50.854;20.580;2023-08-06T14:55:05;18.10;99.90
21759;DHT22;11041;50.854;20.580;2023-08-06T14:57:32;17.90;99.90
21759;DHT22;11041;50.854;20.580;2023-08-06T14:59:59;17.80;99.90
21759;DHT22;11041;50.854;20.580;2023-08-06T15:02:26;17.70;99.90
21759;DHT22;11041;50.854;20.580;2023-08-06T15:04:53;17.70;99.90
21759;DHT22;11041;50.854;20.580;2023-08-06T15:07:19;17.50;99.90
21759;DHT22;11041;50.854;20.580;2023-08-06T15:09:45;17.50;99.90
21759;DHT22;11041;50.854;20.580;2023-08-06T15:12:12;17.50;99.90
21759;DHT22;11041;50.854;20.580;2023-08-06T15:14:38;17.50;99.90
21759;DHT22;11041;50.854;20.580;2023-08-06T15:17:05;17.40;99.90
21759;DHT22;11041;50.854;20.580;2023-08-06T15:19:31;17.40;99.90
21759;DHT22;11041;50.854;20.580;2023-08-06T15:21:57;17.20;99.90
21759;DHT22;11041;50.854;20.580;2023-08-06T15:24:24;17.10;99.90
21759;DHT22;11041;50.854;20.580;2023-08-06T15:26:50;17.10;99.90
21759;DHT22;11041;50.854;20.580;2023-08-06T15:29:16;17.10;99.90
21759;DHT22;11041;50.854;20.580;2023-08-06T15:31:42;17.00;99.90
21759;DHT22;11041;50.854;20.580;2023-08-06T15:34:09;17.00;99.90
21759;DHT22;11041;50.854;20.580;2023-08-06T15:36:35;17.00;99.90
21759;DHT22;11041;50.854;20.580;2023-08-06T15:39:03;17.00;99.90